createdAt,value
2017-09-03T00:02:24.604Z,101223
2017-09-03T00:04:55.942Z,101226
2017-09-03T00:07:24.017Z,101222
2017-09-03T00:09:52.382Z,101214
2017-09-03T00:12:21.481Z,101214
2017-09-03T00:14:49.559Z,101206
2017-09-03T00:17:17.665Z,101211
2017-09-03T00:19:45.840Z,101202
2017-09-03T00:22:13.943Z,101213
2017-09-03T00:24:42.808Z,101207
2017-09-03T00:27:10.907Z,101195
2017-09-03T00:29:39.007Z,101202
2017-09-03T00:32:07.100Z,101197
2017-09-03T00:34:35.219Z,101197
2017-09-03T00:37:03.521Z,101206
2017-09-03T00:39:35.196Z,101199
2017-09-03T00:42:07.315Z,101202
2017-09-03T00:44:35.444Z,101203
2017-09-03T00:47:03.724Z,101193
2017-09-03T00:49:31.817Z,101203
2017-09-03T00:52:00.527Z,101201
2017-09-03T00:54:29.810Z,101196
2017-09-03T00:56:57.932Z,101195
2017-09-03T00:59:26.008Z,101203
2017-09-03T01:01:57.444Z,101183
2017-09-03T01:04:25.551Z,101193
2017-09-03T01:06:53.699Z,101191
2017-09-03T01:09:21.855Z,101194
2017-09-03T01:11:49.959Z,101187
2017-09-03T01:14:18.099Z,101188
2017-09-03T01:16:46.544Z,101186
2017-09-03T01:19:14.683Z,101184
2017-09-03T01:21:42.793Z,101186
2017-09-03T01:24:10.900Z,101186
2017-09-03T01:26:39.047Z,101179
2017-09-03T01:29:07.135Z,101176
2017-09-03T01:31:35.260Z,101179
2017-09-03T01:34:03.336Z,101182
2017-09-03T01:36:31.456Z,101171
2017-09-03T01:39:03.235Z,101176
2017-09-03T01:41:32.404Z,101171
2017-09-03T01:44:00.492Z,101177
2017-09-03T01:46:28.883Z,101167
2017-09-03T01:48:56.988Z,101166
2017-09-03T01:51:25.093Z,101166
2017-09-03T01:53:54.040Z,101160
2017-09-03T01:56:22.131Z,101158
2017-09-03T01:58:50.618Z,101158
2017-09-03T02:01:18.726Z,101158
2017-09-03T02:03:46.845Z,101158
2017-09-03T02:06:14.943Z,101148
2017-09-03T02:08:43.371Z,101161
2017-09-03T02:11:11.464Z,101157
2017-09-03T02:13:39.908Z,101153
2017-09-03T02:16:08.035Z,101151
2017-09-03T02:18:36.164Z,101148
2017-09-03T02:21:08.652Z,101143
2017-09-03T02:23:36.756Z,101148
2017-09-03T02:26:05.009Z,101153
2017-09-03T02:28:33.142Z,101147
2017-09-03T02:31:01.258Z,101152
2017-09-03T02:33:29.364Z,101151
2017-09-03T02:35:57.476Z,101153
2017-09-03T02:38:25.584Z,101148
2017-09-03T02:40:53.663Z,101150
2017-09-03T02:43:21.797Z,101137
2017-09-03T02:45:52.939Z,101141
2017-09-03T02:48:21.855Z,101144
2017-09-03T02:50:50.331Z,101135
2017-09-03T02:53:18.711Z,101140
2017-09-03T02:55:46.812Z,101144
2017-09-03T02:58:14.909Z,101141
2017-09-03T03:00:43.311Z,101146
2017-09-03T03:03:11.415Z,101144
2017-09-03T03:05:39.558Z,101145
2017-09-03T03:08:07.655Z,101146
2017-09-03T03:10:35.794Z,101142
2017-09-03T03:13:04.243Z,101141
2017-09-03T03:15:32.588Z,101128
2017-09-03T03:18:03.904Z,101140
2017-09-03T03:20:32.034Z,101132
2017-09-03T03:23:01.075Z,101140
2017-09-03T03:25:29.460Z,101137
2017-09-03T03:27:58.277Z,101140
2017-09-03T03:30:26.484Z,101131
2017-09-03T03:32:56.599Z,101135
2017-09-03T03:35:24.689Z,101134
2017-09-03T03:37:52.854Z,101134
2017-09-03T03:40:20.948Z,101129
2017-09-03T03:42:49.040Z,101131
2017-09-03T03:45:17.404Z,101118
2017-09-03T03:47:45.489Z,101132
2017-09-03T03:50:17.086Z,101121
2017-09-03T03:52:45.239Z,101121
2017-09-03T03:55:13.688Z,101115
2017-09-03T03:57:42.704Z,101120
2017-09-03T04:00:11.016Z,101115
2017-09-03T04:02:40.053Z,101112
2017-09-03T04:05:09.056Z,101125
2017-09-03T04:07:37.952Z,101114
2017-09-03T04:10:06.308Z,101110
2017-09-03T04:12:34.411Z,101122
2017-09-03T04:15:02.507Z,101110
2017-09-03T04:17:30.579Z,101112
2017-09-03T04:19:59.017Z,101106
2017-09-03T04:22:27.094Z,101110
2017-09-03T04:24:55.173Z,101121
2017-09-03T04:27:23.283Z,101117
2017-09-03T04:29:51.393Z,101116
2017-09-03T04:32:19.502Z,101106
2017-09-03T04:34:47.603Z,101112
2017-09-03T04:37:15.707Z,101111
2017-09-03T04:39:43.792Z,101106
2017-09-03T04:42:11.971Z,101105
2017-09-03T04:44:40.093Z,101099
2017-09-03T04:47:08.856Z,101099
2017-09-03T04:49:37.143Z,101104
2017-09-03T04:52:05.572Z,101100
2017-09-03T04:54:33.658Z,101101
2017-09-03T04:57:01.739Z,101101
2017-09-03T04:59:32.780Z,101112
2017-09-03T05:02:00.882Z,101103
2017-09-03T05:04:29.220Z,101111
2017-09-03T05:06:57.573Z,101115
2017-09-03T05:09:25.673Z,101113
2017-09-03T05:11:53.777Z,101118
2017-09-03T05:14:21.880Z,101108
2017-09-03T05:16:49.983Z,101105
2017-09-03T05:19:18.063Z,101100
2017-09-03T05:21:46.176Z,101111
2017-09-03T05:24:14.251Z,101107
2017-09-03T05:26:42.838Z,101094
2017-09-03T05:29:10.956Z,101100
2017-09-03T05:31:39.040Z,101109
2017-09-03T05:34:07.576Z,101108
2017-09-03T05:36:35.666Z,101108
2017-09-03T05:39:03.783Z,101104
2017-09-03T05:41:35.242Z,101095
2017-09-03T05:44:04.140Z,101102
2017-09-03T05:46:35.628Z,101095
2017-09-03T05:49:03.713Z,101106
2017-09-03T05:51:32.195Z,101099
2017-09-03T05:54:00.361Z,101113
2017-09-03T05:56:28.818Z,101116
2017-09-03T05:58:58.212Z,101108
2017-09-03T06:01:26.421Z,101105
2017-09-03T06:03:55.610Z,101104
2017-09-03T06:06:24.025Z,101101
2017-09-03T06:08:53.177Z,101102
2017-09-03T06:11:21.346Z,101103
2017-09-03T06:13:49.516Z,101109
2017-09-03T06:16:17.689Z,101102
2017-09-03T06:18:46.159Z,101100
2017-09-03T06:21:14.305Z,101104
2017-09-03T06:23:42.412Z,101095
2017-09-03T06:26:10.580Z,101090
2017-09-03T06:28:39.912Z,101099
2017-09-03T06:31:08.338Z,101092
2017-09-03T06:33:36.442Z,101095
2017-09-03T06:36:04.573Z,101092
2017-09-03T06:38:32.679Z,101092
2017-09-03T06:41:00.784Z,101106
2017-09-03T06:43:29.176Z,101110
2017-09-03T06:45:57.342Z,101111
2017-09-03T06:48:25.653Z,101102
2017-09-03T06:50:53.782Z,101103
2017-09-03T06:53:21.936Z,101113
2017-09-03T06:55:50.099Z,101108
2017-09-03T06:58:18.484Z,101108
2017-09-03T07:00:47.393Z,101113
2017-09-03T07:03:15.549Z,101111
2017-09-03T07:05:43.757Z,101105
2017-09-03T07:08:11.887Z,101106
2017-09-03T07:10:40.243Z,101101
2017-09-03T07:13:09.446Z,101109
2017-09-03T07:15:37.574Z,101104
2017-09-03T07:18:06.201Z,101101
2017-09-03T07:20:36.328Z,101102
2017-09-03T07:23:04.708Z,101102
2017-09-03T07:25:32.869Z,101107
2017-09-03T07:28:01.084Z,101105
2017-09-03T07:30:29.572Z,101100
2017-09-03T07:32:57.716Z,101105
2017-09-03T07:35:26.076Z,101101
2017-09-03T07:37:54.496Z,101101
2017-09-03T07:40:22.651Z,101104
2017-09-03T07:42:51.144Z,101094
2017-09-03T07:45:19.277Z,101092
2017-09-03T07:47:47.351Z,101099
2017-09-03T07:50:15.456Z,101104
2017-09-03T07:52:43.602Z,101099
2017-09-03T07:55:12.511Z,101100
2017-09-03T07:57:41.403Z,101100
2017-09-03T08:00:12.147Z,101100
2017-09-03T08:02:46.300Z,101093
2017-09-03T08:05:15.350Z,101088
2017-09-03T08:07:44.299Z,101083
2017-09-03T08:10:12.505Z,101085
2017-09-03T08:12:40.877Z,101092
2017-09-03T08:15:12.970Z,101089
2017-09-03T08:17:41.324Z,101071
2017-09-03T08:20:10.328Z,101077
2017-09-03T08:22:38.432Z,101076
2017-09-03T08:25:06.695Z,101078
2017-09-03T08:27:35.189Z,101084
2017-09-03T08:30:04.573Z,101079
2017-09-03T08:32:32.688Z,101068
2017-09-03T08:35:00.793Z,101068
2017-09-03T08:37:28.912Z,101064
2017-09-03T08:39:57.015Z,101064
2017-09-03T08:42:25.384Z,101061
2017-09-03T08:44:53.524Z,101060
2017-09-03T08:47:21.700Z,101064
2017-09-03T08:49:50.261Z,101066
2017-09-03T08:52:18.732Z,101053
2017-09-03T08:54:47.191Z,101055
2017-09-03T08:57:15.492Z,101057
2017-09-03T08:59:43.576Z,101042
2017-09-03T09:02:11.819Z,101056
2017-09-03T09:04:39.895Z,101049
2017-09-03T09:07:08.452Z,101041
2017-09-03T09:09:36.859Z,101043
2017-09-03T09:12:05.223Z,101039
2017-09-03T09:14:33.403Z,101040
2017-09-03T09:17:01.511Z,101041
2017-09-03T09:19:29.603Z,101041
2017-09-03T09:21:57.955Z,101033
2017-09-03T09:24:26.163Z,101035
2017-09-03T09:26:54.258Z,101031
2017-09-03T09:29:22.589Z,101026
2017-09-03T09:31:50.723Z,101027
2017-09-03T09:34:19.013Z,101024
2017-09-03T09:36:50.446Z,101049
2017-09-03T09:39:18.840Z,101032
2017-09-03T09:41:47.002Z,101031
2017-09-03T09:44:16.105Z,101028
2017-09-03T09:46:44.212Z,101025
2017-09-03T09:49:12.322Z,101025
2017-09-03T09:51:41.338Z,101024
2017-09-03T09:54:09.440Z,101031
2017-09-03T09:56:37.569Z,101028
2017-09-03T09:59:05.691Z,101023
2017-09-03T10:01:34.808Z,101022
2017-09-03T10:04:06.342Z,101018
2017-09-03T10:06:34.540Z,101019
2017-09-03T10:09:02.981Z,101018
2017-09-03T10:11:31.365Z,101016
2017-09-03T10:13:59.752Z,101011
2017-09-03T10:16:28.263Z,101018
2017-09-03T10:18:56.428Z,101008
2017-09-03T10:21:26.951Z,101012
2017-09-03T10:23:55.408Z,101004
2017-09-03T10:26:23.810Z,101003
2017-09-03T10:28:52.324Z,101001
2017-09-03T10:31:20.468Z,101003
2017-09-03T10:33:48.597Z,101000
2017-09-03T10:36:16.971Z,100995
2017-09-03T10:38:45.089Z,100994
2017-09-03T10:41:13.515Z,100998
2017-09-03T10:43:42.723Z,100999
2017-09-03T10:46:11.104Z,101000
2017-09-03T10:48:39.532Z,100996
2017-09-03T10:51:07.908Z,100998
2017-09-03T10:53:35.987Z,100994
2017-09-03T10:56:04.836Z,100996
2017-09-03T10:58:34.028Z,100985
2017-09-03T11:01:02.424Z,100989
2017-09-03T11:03:31.403Z,100982
2017-09-03T11:05:59.577Z,100975
2017-09-03T11:08:28.525Z,100977
2017-09-03T11:10:56.916Z,100972
2017-09-03T11:13:25.268Z,100973
2017-09-03T11:15:53.466Z,100976
2017-09-03T11:18:21.815Z,100982
2017-09-03T11:20:50.127Z,100973
2017-09-03T11:23:18.467Z,100962
2017-09-03T11:25:46.839Z,100965
2017-09-03T11:28:16.109Z,100963
2017-09-03T11:30:47.159Z,100962
2017-09-03T11:33:15.947Z,100959
2017-09-03T11:35:44.789Z,100956
2017-09-03T11:38:23.403Z,100952
2017-09-03T11:41:05.704Z,100955
2017-09-03T11:43:44.437Z,100950
2017-09-03T11:46:13.373Z,100949
2017-09-03T11:49:12.721Z,100948
2017-09-03T11:51:51.119Z,100952
2017-09-03T11:54:19.225Z,100947
2017-09-03T11:56:48.763Z,100942
2017-09-03T11:59:20.580Z,100938
2017-09-03T12:01:50.055Z,100938
2017-09-03T12:04:24.656Z,100932
2017-09-03T12:06:53.768Z,100928
2017-09-03T12:09:22.208Z,100940
2017-09-03T12:11:50.595Z,100936
2017-09-03T12:14:19.584Z,100928
2017-09-03T12:16:48.788Z,100928
2017-09-03T12:19:17.189Z,100920
2017-09-03T12:21:45.567Z,100912
2017-09-03T12:24:13.732Z,100915
2017-09-03T12:26:43.900Z,100914
2017-09-03T12:29:12.667Z,100909
2017-09-03T12:31:41.640Z,100911
2017-09-03T12:34:09.742Z,100914
2017-09-03T12:36:37.852Z,100904
2017-09-03T12:39:15.176Z,100906
2017-09-03T12:41:43.371Z,100911
2017-09-03T12:44:14.520Z,100902
2017-09-03T12:46:43.698Z,100910
2017-09-03T12:49:14.803Z,100893
2017-09-03T12:51:51.383Z,100893
2017-09-03T12:54:32.661Z,100892
2017-09-03T12:57:02.912Z,100885
2017-09-03T12:59:36.730Z,100878
2017-09-03T13:02:07.864Z,100877
2017-09-03T13:04:36.193Z,100874
2017-09-03T13:07:14.521Z,100866
2017-09-03T13:09:47.065Z,100865
2017-09-03T13:12:17.236Z,100864
2017-09-03T13:14:56.843Z,100853
2017-09-03T13:17:26.282Z,100857
2017-09-03T13:19:55.179Z,100853
2017-09-03T13:22:23.411Z,100850
2017-09-03T13:24:51.528Z,100850
2017-09-03T13:27:20.788Z,100845
2017-09-03T13:30:02.231Z,100851
2017-09-03T13:32:30.594Z,100844
2017-09-03T13:34:58.795Z,100844
2017-09-03T13:37:34.079Z,100836
2017-09-03T13:40:05.047Z,100833
2017-09-03T13:42:34.988Z,100828
2017-09-03T13:45:03.107Z,100826
2017-09-03T13:47:31.208Z,100824
2017-09-03T13:49:59.329Z,100821
2017-09-03T13:52:28.386Z,100827
2017-09-03T13:54:56.520Z,100825
2017-09-03T13:57:24.621Z,100816
2017-09-03T13:59:54.474Z,100819
2017-09-03T14:02:22.592Z,100811
2017-09-03T14:04:50.988Z,100814
2017-09-03T14:07:22.852Z,100810
2017-09-03T14:09:57.804Z,100799
2017-09-03T14:12:25.926Z,100805
2017-09-03T14:14:55.036Z,100808
2017-09-03T14:17:23.192Z,100806
2017-09-03T14:19:51.288Z,100801
2017-09-03T14:22:32.922Z,100800
2017-09-03T14:25:01.564Z,100803
2017-09-03T14:27:37.824Z,100801
2017-09-03T14:30:12.317Z,100803
2017-09-03T14:32:40.635Z,100800
2017-09-03T14:35:09.832Z,100800
2017-09-03T14:37:38.013Z,100798
2017-09-03T14:40:06.104Z,100797
2017-09-03T14:42:34.540Z,100795
2017-09-03T14:45:02.973Z,100795
2017-09-03T14:47:31.105Z,100793
2017-09-03T14:49:59.239Z,100790
2017-09-03T14:52:30.744Z,100786
2017-09-03T14:54:59.211Z,100780
2017-09-03T14:57:30.918Z,100775
2017-09-03T14:59:59.088Z,100779
2017-09-03T15:02:27.873Z,100778
2017-09-03T15:05:00.467Z,100776
2017-09-03T15:07:29.135Z,100783
2017-09-03T15:09:57.374Z,100783
2017-09-03T15:12:25.488Z,100775
2017-09-03T15:14:54.411Z,100776
2017-09-03T15:17:22.813Z,100779
2017-09-03T15:19:50.965Z,100782
2017-09-03T15:22:19.996Z,100776
2017-09-03T15:24:51.353Z,100783
2017-09-03T15:27:20.018Z,100777
2017-09-03T15:29:48.404Z,100768
2017-09-03T15:32:16.610Z,100776
2017-09-03T15:34:44.840Z,100779
2017-09-03T15:37:16.601Z,100772
2017-09-03T15:39:44.773Z,100764
2017-09-03T15:42:12.944Z,100772
2017-09-03T15:44:43.013Z,100761
2017-09-03T15:47:11.159Z,100757
2017-09-03T15:49:39.561Z,100762
2017-09-03T15:52:08.906Z,100760
2017-09-03T15:54:37.273Z,100757
2017-09-03T15:57:07.751Z,100765
2017-09-03T15:59:37.303Z,100755
2017-09-03T16:02:07.954Z,100751
2017-09-03T16:04:36.437Z,100749
2017-09-03T16:07:04.691Z,100742
2017-09-03T16:09:33.123Z,100748
2017-09-03T16:12:03.466Z,100745
2017-09-03T16:14:35.338Z,100744
2017-09-03T16:17:05.378Z,100740
2017-09-03T16:19:35.028Z,100744
2017-09-03T16:22:03.342Z,100744
2017-09-03T16:24:32.927Z,100741
2017-09-03T16:27:02.524Z,100752
2017-09-03T16:29:31.036Z,100748
2017-09-03T16:31:59.167Z,100748
2017-09-03T16:34:27.271Z,100746
2017-09-03T16:36:55.668Z,100744
2017-09-03T16:39:24.144Z,100739
2017-09-03T16:41:52.318Z,100743
2017-09-03T16:44:20.452Z,100738
2017-09-03T16:46:49.532Z,100741
2017-09-03T16:49:17.980Z,100735
2017-09-03T16:51:46.733Z,100740
2017-09-03T16:54:18.497Z,100738
2017-09-03T16:56:46.856Z,100745
2017-09-03T16:59:16.193Z,100739
2017-09-03T17:01:44.331Z,100738
2017-09-03T17:04:13.504Z,100747
2017-09-03T17:06:42.903Z,100738
2017-09-03T17:09:11.103Z,100748
2017-09-03T17:11:39.220Z,100753
2017-09-03T17:14:08.622Z,100749
2017-09-03T17:16:37.407Z,100743
2017-09-03T17:19:07.323Z,100737
2017-09-03T17:21:38.461Z,100743
2017-09-03T17:24:06.610Z,100738
2017-09-03T17:26:34.696Z,100742
2017-09-03T17:29:03.814Z,100745
2017-09-03T17:31:38.361Z,100746
2017-09-03T17:34:06.733Z,100745
2017-09-03T17:36:42.615Z,100756
2017-09-03T17:39:11.032Z,100745
2017-09-03T17:41:41.020Z,100752
2017-09-03T17:44:17.429Z,100752
2017-09-03T17:46:49.947Z,100747
2017-09-03T17:49:18.345Z,100758
2017-09-03T17:51:47.774Z,100757
2017-09-03T17:54:16.255Z,100750
2017-09-03T17:56:47.706Z,100753
2017-09-03T17:59:17.303Z,100753
2017-09-03T18:01:45.387Z,100751
2017-09-03T18:04:13.512Z,100754
2017-09-03T18:06:41.957Z,100756
2017-09-03T18:09:10.104Z,100759
2017-09-03T18:11:38.686Z,100681
2017-09-03T18:14:07.046Z,100758
2017-09-03T18:16:35.589Z,100765
2017-09-03T18:19:04.149Z,100761
2017-09-03T18:21:32.615Z,100766
2017-09-03T18:24:01.522Z,100766
2017-09-03T18:26:30.159Z,100768
2017-09-03T18:28:59.093Z,100765
2017-09-03T18:31:28.204Z,100764
2017-09-03T18:33:56.376Z,100758
2017-09-03T18:36:30.108Z,100758
2017-09-03T18:39:03.555Z,100760
2017-09-03T18:41:31.931Z,100755
2017-09-03T18:44:00.419Z,100762
2017-09-03T18:46:30.307Z,100758
2017-09-03T18:48:58.712Z,100763
2017-09-03T18:51:27.231Z,100762
2017-09-03T18:54:02.411Z,100767
2017-09-03T18:56:30.551Z,100770
2017-09-03T19:02:10.781Z,100770
2017-09-03T19:04:39.813Z,100766
2017-09-03T19:07:08.542Z,100770
2017-09-03T19:09:36.676Z,100790
2017-09-03T19:12:04.849Z,100773
2017-09-03T19:14:33.512Z,100778
2017-09-03T19:17:01.651Z,100772
2017-09-03T19:19:29.772Z,100772
2017-09-03T19:21:57.916Z,100774
2017-09-03T19:24:28.840Z,100794
2017-09-03T19:26:57.260Z,100785
2017-09-03T19:29:25.740Z,100790
2017-09-03T19:31:57.318Z,100786
2017-09-03T19:34:25.728Z,100777
2017-09-03T19:36:53.836Z,100782
2017-09-03T19:39:22.185Z,100794
2017-09-03T19:41:50.368Z,100790
2017-09-03T19:44:18.467Z,100798
2017-09-03T19:46:46.696Z,100793
2017-09-03T19:49:15.523Z,100792
2017-09-03T19:51:43.892Z,100788
2017-09-03T19:54:13.783Z,100767
2017-09-03T19:56:43.017Z,100792
2017-09-03T19:59:11.110Z,100782
2017-09-03T20:01:39.232Z,100787
2017-09-03T20:04:08.361Z,100789
2017-09-03T20:06:36.761Z,100786
2017-09-03T20:09:07.518Z,100796
2017-09-03T20:11:35.876Z,100785
2017-09-03T20:14:04.311Z,100793
2017-09-03T20:16:32.656Z,100793
2017-09-03T20:19:00.749Z,100790
2017-09-03T20:21:34.490Z,100798
2017-09-03T20:24:02.611Z,100786
2017-09-03T20:26:32.303Z,100788
2017-09-03T20:29:00.523Z,100793
2017-09-03T20:31:29.040Z,100784
2017-09-03T20:33:57.404Z,100792
2017-09-03T20:36:25.537Z,100785
2017-09-03T20:38:54.498Z,100790
2017-09-03T20:41:22.885Z,100786
2017-09-03T20:43:51.027Z,100789
2017-09-03T20:46:19.145Z,100792
2017-09-03T20:48:47.249Z,100786
2017-09-03T20:51:15.388Z,100796
2017-09-03T20:53:43.517Z,100798
2017-09-03T20:56:11.640Z,100797
2017-09-03T20:58:39.775Z,100791
2017-09-03T21:01:07.912Z,100789
2017-09-03T21:03:36.037Z,100791
2017-09-03T21:06:04.160Z,100793
2017-09-03T21:08:32.324Z,100794
2017-09-03T21:11:00.418Z,100789
2017-09-03T21:13:28.873Z,100792
2017-09-03T21:15:58.389Z,100793
2017-09-03T21:18:26.775Z,100788
2017-09-03T21:20:54.899Z,100782
2017-09-03T21:23:23.124Z,100783
2017-09-03T21:25:53.138Z,100786
2017-09-03T21:28:21.297Z,100783
2017-09-03T21:30:50.473Z,100794
2017-09-03T21:33:19.471Z,100792
2017-09-03T21:35:47.856Z,100786
2017-09-03T21:38:16.874Z,100789
2017-09-03T21:40:44.943Z,100791
2017-09-03T21:43:16.411Z,100791
2017-09-03T21:45:44.494Z,100794
2017-09-03T21:48:12.588Z,100785
2017-09-03T21:50:40.673Z,100788
2017-09-03T21:53:08.885Z,100788
2017-09-03T21:55:37.459Z,100788
2017-09-03T21:58:05.840Z,100790
2017-09-03T22:00:34.276Z,100791
2017-09-03T22:03:02.407Z,100795
2017-09-03T22:05:30.603Z,100796
2017-09-03T22:08:01.842Z,100785
2017-09-03T22:10:30.853Z,100797
2017-09-03T22:12:58.971Z,100797
2017-09-03T22:15:27.065Z,100799
2017-09-03T22:17:55.416Z,100799
2017-09-03T22:20:24.318Z,100796
2017-09-03T22:22:52.403Z,100798
2017-09-03T22:25:20.544Z,100792
2017-09-03T22:27:50.143Z,100786
2017-09-03T22:30:18.286Z,100786
2017-09-03T22:32:46.401Z,100784
2017-09-03T22:35:14.487Z,100787
2017-09-03T22:37:42.793Z,100783
2017-09-03T22:40:11.164Z,100777
2017-09-03T22:42:40.049Z,100778
2017-09-03T22:45:08.388Z,100791
2017-09-03T22:47:36.533Z,100784
2017-09-03T22:50:04.980Z,100786
2017-09-03T22:52:34.769Z,100782
2017-09-03T22:55:02.856Z,100783
2017-09-03T22:57:30.965Z,100784
2017-09-03T22:59:59.305Z,100783
2017-09-03T23:02:27.655Z,100790
2017-09-03T23:04:55.748Z,100786
2017-09-03T23:07:23.857Z,100780
2017-09-03T23:09:51.971Z,100772
2017-09-03T23:12:20.386Z,100777
2017-09-03T23:14:48.487Z,100777
2017-09-03T23:17:16.596Z,100769
2017-09-03T23:19:44.731Z,100781
2017-09-03T23:22:12.809Z,100775
2017-09-03T23:24:41.488Z,100775
2017-09-03T23:27:09.574Z,100784
2017-09-03T23:29:37.676Z,100771
2017-09-03T23:32:05.775Z,100780
2017-09-03T23:34:33.990Z,100776
2017-09-03T23:37:02.200Z,100772
2017-09-03T23:39:33.275Z,100771
2017-09-03T23:42:01.375Z,100767
2017-09-03T23:44:30.739Z,100774
2017-09-03T23:46:58.895Z,100774
2017-09-03T23:49:30.174Z,100765
2017-09-03T23:51:58.340Z,100777
2017-09-03T23:54:26.554Z,100765
2017-09-03T23:56:58.701Z,100766
2017-09-03T23:59:27.028Z,100767
